sensor_id;sensor_type;location;lat;lon;timestamp;temperature;humidity
18781;DHT22;9519;51.890;8.970;2022-10-12T00:02:26;6.10;96.60
18781;DHT22;9519;51.890;8.970;2022-10-12T00:07:28;6.00;96.60
18781;DHT22;9519;51.890;8.970;2022-10-12T00:12:30;6.00;96.60
18781;DHT22;9519;51.890;8.970;2022-10-12T00:17:33;5.90;96.60
18781;DHT22;9519;51.890;8.970;2022-10-12T00:22:36;5.80;96.70
18781;DHT22;9519;51.890;8.970;2022-10-12T00:27:38;5.70;96.70
18781;DHT22;9519;51.890;8.970;2022-10-12T00:32:41;5.70;96.80
18781;DHT22;9519;51.890;8.970;2022-10-12T00:37:43;5.70;96.90
18781;DHT22;9519;51.890;8.970;2022-10-12T00:42:45;5.70;96.90
18781;DHT22;9519;51.890;8.970;2022-10-12T00:47:52;5.60;96.90
18781;DHT22;9519;51.890;8.970;2022-10-12T00:53:00;5.60;97.10
18781;DHT22;9519;51.890;8.970;2022-10-12T00:58:06;5.60;97.20
18781;DHT22;9519;51.890;8.970;2022-10-12T01:03:12;5.60;97.60
18781;DHT22;9519;51.890;8.970;2022-10-12T01:08:17;5.80;99.90
18781;DHT22;9519;51.890;8.970;2022-10-12T01:13:19;5.60;97.40
18781;DHT22;9519;51.890;8.970;2022-10-12T01:18:28;5.50;97.50
18781;DHT22;9519;51.890;8.970;2022-10-12T01:23:57;5.50;97.60
18781;DHT22;9519;51.890;8.970;2022-10-12T01:29:18;5.50;97.60
18781;DHT22;9519;51.890;8.970;2022-10-12T01:34:36;5.50;97.70
18781;DHT22;9519;51.890;8.970;2022-10-12T01:39:48;5.50;97.70
18781;DHT22;9519;51.890;8.970;2022-10-12T01:45:00;5.50;97.80
18781;DHT22;9519;51.890;8.970;2022-10-12T01:50:07;5.40;97.80
18781;DHT22;9519;51.890;8.970;2022-10-12T01:55:33;5.60;99.90
18781;DHT22;9519;51.890;8.970;2022-10-12T02:00:42;5.40;99.90
18781;DHT22;9519;51.890;8.970;2022-10-12T02:06:00;5.40;98.00
18781;DHT22;9519;51.890;8.970;2022-10-12T02:11:07;5.40;98.00
18781;DHT22;9519;51.890;8.970;2022-10-12T02:16:12;5.30;98.00
18781;DHT22;9519;51.890;8.970;2022-10-12T02:21:22;5.40;98.10
18781;DHT22;9519;51.890;8.970;2022-10-12T02:26:29;5.60;99.90
18781;DHT22;9519;51.890;8.970;2022-10-12T02:31:37;5.20;98.10
18781;DHT22;9519;51.890;8.970;2022-10-12T02:36:51;5.30;98.20
18781;DHT22;9519;51.890;8.970;2022-10-12T02:42:00;5.30;98.30
18781;DHT22;9519;51.890;8.970;2022-10-12T02:47:10;5.30;98.40
18781;DHT22;9519;51.890;8.970;2022-10-12T02:52:16;5.30;98.40
18781;DHT22;9519;51.890;8.970;2022-10-12T02:57:18;5.30;98.50
18781;DHT22;9519;51.890;8.970;2022-10-12T03:02:20;5.30;98.60
18781;DHT22;9519;51.890;8.970;2022-10-12T03:07:24;5.30;98.60
18781;DHT22;9519;51.890;8.970;2022-10-12T03:12:26;5.30;98.60
18781;DHT22;9519;51.890;8.970;2022-10-12T03:17:28;5.20;98.90
18781;DHT22;9519;51.890;8.970;2022-10-12T03:22:31;5.30;99.90
18781;DHT22;9519;51.890;8.970;2022-10-12T03:27:33;5.10;98.60
18781;DHT22;9519;51.890;8.970;2022-10-12T03:32:35;5.10;98.60
18781;DHT22;9519;51.890;8.970;2022-10-12T03:37:39;5.00;99.00
18781;DHT22;9519;51.890;8.970;2022-10-12T03:42:41;5.10;98.70
18781;DHT22;9519;51.890;8.970;2022-10-12T03:47:43;4.90;99.90
18781;DHT22;9519;51.890;8.970;2022-10-12T03:52:46;4.80;99.90
18781;DHT22;9519;51.890;8.970;2022-10-12T03:57:48;4.70;98.70
18781;DHT22;9519;51.890;8.970;2022-10-12T04:02:50;4.80;98.80
18781;DHT22;9519;51.890;8.970;2022-10-12T04:07:54;4.80;98.90
18781;DHT22;9519;51.890;8.970;2022-10-12T04:12:56;4.90;99.00
18781;DHT22;9519;51.890;8.970;2022-10-12T04:17:58;5.20;99.90
18781;DHT22;9519;51.890;8.970;2022-10-12T04:23:01;4.80;99.10
18781;DHT22;9519;51.890;8.970;2022-10-12T04:28:04;4.80;99.10
18781;DHT22;9519;51.890;8.970;2022-10-12T04:33:06;5.00;99.90
18781;DHT22;9519;51.890;8.970;2022-10-12T04:38:09;4.80;99.20
18781;DHT22;9519;51.890;8.970;2022-10-12T04:43:12;4.80;99.30
18781;DHT22;9519;51.890;8.970;2022-10-12T04:48:14;4.60;99.90
18781;DHT22;9519;51.890;8.970;2022-10-12T04:53:18;4.80;99.30
18781;DHT22;9519;51.890;8.970;2022-10-12T04:58:20;4.80;99.40
18781;DHT22;9519;51.890;8.970;2022-10-12T05:03:23;4.80;99.40
18781;DHT22;9519;51.890;8.970;2022-10-12T05:08:27;4.80;99.50
18781;DHT22;9519;51.890;8.970;2022-10-12T05:13:29;4.60;99.90
18781;DHT22;9519;51.890;8.970;2022-10-12T05:18:31;4.80;99.60
18781;DHT22;9519;51.890;8.970;2022-10-12T05:23:34;4.80;99.70
18781;DHT22;9519;51.890;8.970;2022-10-12T05:28:36;5.20;99.90
18781;DHT22;9519;51.890;8.970;2022-10-12T05:33:38;4.80;99.70
18781;DHT22;9519;51.890;8.970;2022-10-12T05:38:42;4.80;99.70
18781;DHT22;9519;51.890;8.970;2022-10-12T05:43:44;4.80;99.80
18781;DHT22;9519;51.890;8.970;2022-10-12T05:48:46;4.80;99.80
18781;DHT22;9519;51.890;8.970;2022-10-12T05:53:49;4.80;99.70
18781;DHT22;9519;51.890;8.970;2022-10-12T05:58:51;4.70;99.90
18781;DHT22;9519;51.890;8.970;2022-10-12T06:03:54;4.80;99.80
18781;DHT22;9519;51.890;8.970;2022-10-12T06:08:57;4.70;99.80
18781;DHT22;9519;51.890;8.970;2022-10-12T06:13:59;4.70;99.90
18781;DHT22;9519;51.890;8.970;2022-10-12T06:19:01;4.70;99.90
18781;DHT22;9519;51.890;8.970;2022-10-12T06:24:05;4.70;99.90
18781;DHT22;9519;51.890;8.970;2022-10-12T06:29:07;4.70;99.90
18781;DHT22;9519;51.890;8.970;2022-10-12T06:34:10;4.70;99.90
18781;DHT22;9519;51.890;8.970;2022-10-12T06:39:13;4.70;99.90
18781;DHT22;9519;51.890;8.970;2022-10-12T06:44:15;4.80;99.90
18781;DHT22;9519;51.890;8.970;2022-10-12T06:49:17;5.20;99.90
18781;DHT22;9519;51.890;8.970;2022-10-12T06:54:21;4.90;99.90
18781;DHT22;9519;51.890;8.970;2022-10-12T06:59:23;5.50;99.90
18781;DHT22;9519;51.890;8.970;2022-10-12T07:04:25;5.10;99.90
18781;DHT22;9519;51.890;8.970;2022-10-12T07:09:28;5.20;99.90
18781;DHT22;9519;51.890;8.970;2022-10-12T07:14:31;5.40;99.90
18781;DHT22;9519;51.890;8.970;2022-10-12T07:19:33;5.70;99.90
18781;DHT22;9519;51.890;8.970;2022-10-12T07:24:36;5.60;99.90
18781;DHT22;9519;51.890;8.970;2022-10-12T07:29:39;5.80;99.90
18781;DHT22;9519;51.890;8.970;2022-10-12T07:34:41;6.00;99.90
18781;DHT22;9519;51.890;8.970;2022-10-12T07:39:45;6.20;99.90
18781;DHT22;9519;51.890;8.970;2022-10-12T07:44:48;6.40;99.90
18781;DHT22;9519;51.890;8.970;2022-10-12T07:49:50;6.60;99.90
18781;DHT22;9519;51.890;8.970;2022-10-12T07:54:53;6.80;99.90
18781;DHT22;9519;51.890;8.970;2022-10-12T07:59:56;7.00;99.90
18781;DHT22;9519;51.890;8.970;2022-10-12T08:04:58;7.20;99.90
18781;DHT22;9519;51.890;8.970;2022-10-12T08:10:01;7.40;99.90
18781;DHT22;9519;51.890;8.970;2022-10-12T08:15:04;7.50;99.90
18781;DHT22;9519;51.890;8.970;2022-10-12T08:20:07;7.70;99.90
18781;DHT22;9519;51.890;8.970;2022-10-12T08:25:11;7.90;99.90
18781;DHT22;9519;51.890;8.970;2022-10-12T08:30:13;8.00;99.90
18781;DHT22;9519;51.890;8.970;2022-10-12T08:35:16;8.20;99.90
18781;DHT22;9519;51.890;8.970;2022-10-12T08:40:27;8.40;99.90
18781;DHT22;9519;51.890;8.970;2022-10-12T08:45:41;8.60;99.90
18781;DHT22;9519;51.890;8.970;2022-10-12T08:50:52;8.80;99.90
18781;DHT22;9519;51.890;8.970;2022-10-12T08:55:58;9.00;99.90
18781;DHT22;9519;51.890;8.970;2022-10-12T09:01:11;9.10;99.90
18781;DHT22;9519;51.890;8.970;2022-10-12T09:06:23;9.20;99.90
18781;DHT22;9519;51.890;8.970;2022-10-12T09:11:48;9.30;99.90
18781;DHT22;9519;51.890;8.970;2022-10-12T09:17:07;9.40;99.90
18781;DHT22;9519;51.890;8.970;2022-10-12T09:22:22;9.60;99.90
18781;DHT22;9519;51.890;8.970;2022-10-12T09:27:30;9.60;99.90
18781;DHT22;9519;51.890;8.970;2022-10-12T09:38:09;10.00;99.90
18781;DHT22;9519;51.890;8.970;2022-10-12T09:43:13;10.20;99.90
18781;DHT22;9519;51.890;8.970;2022-10-12T09:48:18;10.40;99.90
18781;DHT22;9519;51.890;8.970;2022-10-12T09:53:25;10.60;99.90
18781;DHT22;9519;51.890;8.970;2022-10-12T09:58:39;10.70;99.90
18781;DHT22;9519;51.890;8.970;2022-10-12T10:03:44;11.00;99.90
18781;DHT22;9519;51.890;8.970;2022-10-12T10:08:47;11.20;99.90
18781;DHT22;9519;51.890;8.970;2022-10-12T10:13:53;11.50;99.90
18781;DHT22;9519;51.890;8.970;2022-10-12T10:18:58;11.70;99.90
18781;DHT22;9519;51.890;8.970;2022-10-12T10:24:04;11.90;99.90
18781;DHT22;9519;51.890;8.970;2022-10-12T10:29:31;12.10;99.90
18781;DHT22;9519;51.890;8.970;2022-10-12T10:34:35;12.30;99.90
18781;DHT22;9519;51.890;8.970;2022-10-12T10:39:44;12.50;99.90
18781;DHT22;9519;51.890;8.970;2022-10-12T10:44:51;12.80;99.90
18781;DHT22;9519;51.890;8.970;2022-10-12T10:50:01;12.90;99.90
18781;DHT22;9519;51.890;8.970;2022-10-12T10:55:17;13.10;99.90
18781;DHT22;9519;51.890;8.970;2022-10-12T11:00:22;13.30;99.60
18781;DHT22;9519;51.890;8.970;2022-10-12T11:05:26;13.50;99.30
18781;DHT22;9519;51.890;8.970;2022-10-12T11:10:35;13.60;98.80
18781;DHT22;9519;51.890;8.970;2022-10-12T11:15:45;13.80;98.80
18781;DHT22;9519;51.890;8.970;2022-10-12T11:20:55;14.00;98.20
18781;DHT22;9519;51.890;8.970;2022-10-12T11:26:17;14.10;97.70
18781;DHT22;9519;51.890;8.970;2022-10-12T11:31:31;14.30;97.40
18781;DHT22;9519;51.890;8.970;2022-10-12T11:36:39;14.50;97.00
18781;DHT22;9519;51.890;8.970;2022-10-12T11:41:45;14.60;97.00
18781;DHT22;9519;51.890;8.970;2022-10-12T11:46:56;14.70;96.30
18781;DHT22;9519;51.890;8.970;2022-10-12T11:52:07;14.80;96.00
18781;DHT22;9519;51.890;8.970;2022-10-12T12:03:19;15.00;95.50
18781;DHT22;9519;51.890;8.970;2022-10-12T12:21:03;15.40;95.40
18781;DHT22;9519;51.890;8.970;2022-10-12T12:26:14;15.50;95.00
18781;DHT22;9519;51.890;8.970;2022-10-12T12:31:26;15.70;95.10
18781;DHT22;9519;51.890;8.970;2022-10-12T12:36:32;15.90;94.50
18781;DHT22;9519;51.890;8.970;2022-10-12T12:41:47;16.00;94.50
18781;DHT22;9519;51.890;8.970;2022-10-12T12:47:17;16.20;94.20
18781;DHT22;9519;51.890;8.970;2022-10-12T12:52:27;16.30;94.00
18781;DHT22;9519;51.890;8.970;2022-10-12T12:57:48;16.40;93.60
18781;DHT22;9519;51.890;8.970;2022-10-12T13:03:31;16.30;93.40
18781;DHT22;9519;51.890;8.970;2022-10-12T13:14:45;16.30;93.20
18781;DHT22;9519;51.890;8.970;2022-10-12T13:20:14;16.20;93.10
18781;DHT22;9519;51.890;8.970;2022-10-12T13:25:27;16.20;93.10
18781;DHT22;9519;51.890;8.970;2022-10-12T13:30:38;16.20;92.90
18781;DHT22;9519;51.890;8.970;2022-10-12T13:35:51;16.30;92.90
18781;DHT22;9519;51.890;8.970;2022-10-12T13:41:05;16.30;92.90
18781;DHT22;9519;51.890;8.970;2022-10-12T13:46:11;16.40;92.70
18781;DHT22;9519;51.890;8.970;2022-10-12T13:51:25;16.50;92.70
18781;DHT22;9519;51.890;8.970;2022-10-12T13:56:29;16.60;92.60
18781;DHT22;9519;51.890;8.970;2022-10-12T14:01:33;16.70;92.80
18781;DHT22;9519;51.890;8.970;2022-10-12T14:06:55;16.90;92.70
18781;DHT22;9519;51.890;8.970;2022-10-12T14:12:01;17.00;92.50
18781;DHT22;9519;51.890;8.970;2022-10-12T14:17:04;17.10;92.40
18781;DHT22;9519;51.890;8.970;2022-10-12T14:22:07;17.30;92.20
18781;DHT22;9519;51.890;8.970;2022-10-12T14:27:21;17.40;91.90
18781;DHT22;9519;51.890;8.970;2022-10-12T14:32:38;17.60;92.00
18781;DHT22;9519;51.890;8.970;2022-10-12T14:37:43;17.80;91.90
18781;DHT22;9519;51.890;8.970;2022-10-12T14:42:56;18.00;91.90
18781;DHT22;9519;51.890;8.970;2022-10-12T14:48:00;18.10;91.30
18781;DHT22;9519;51.890;8.970;2022-10-12T14:53:09;18.20;91.40
18781;DHT22;9519;51.890;8.970;2022-10-12T14:58:15;18.30;91.30
18781;DHT22;9519;51.890;8.970;2022-10-12T15:03:17;18.40;91.10
18781;DHT22;9519;51.890;8.970;2022-10-12T15:08:20;18.60;91.00
18781;DHT22;9519;51.890;8.970;2022-10-12T15:13:23;18.60;90.80
18781;DHT22;9519;51.890;8.970;2022-10-12T15:18:26;18.70;90.70
18781;DHT22;9519;51.890;8.970;2022-10-12T15:23:28;18.70;90.40
18781;DHT22;9519;51.890;8.970;2022-10-12T15:28:32;18.70;90.10
18781;DHT22;9519;51.890;8.970;2022-10-12T15:33:34;18.60;90.00
18781;DHT22;9519;51.890;8.970;2022-10-12T15:38:36;18.40;89.90
18781;DHT22;9519;51.890;8.970;2022-10-12T15:43:40;18.20;89.80
18781;DHT22;9519;51.890;8.970;2022-10-12T15:48:42;17.90;90.10
18781;DHT22;9519;51.890;8.970;2022-10-12T15:53:44;17.60;89.80
18781;DHT22;9519;51.890;8.970;2022-10-12T15:58:48;17.30;89.90
18781;DHT22;9519;51.890;8.970;2022-10-12T16:03:50;17.10;90.00
18781;DHT22;9519;51.890;8.970;2022-10-12T16:08:52;16.80;90.10
18781;DHT22;9519;51.890;8.970;2022-10-12T16:13:55;16.50;90.40
18781;DHT22;9519;51.890;8.970;2022-10-12T16:18:58;16.20;90.50
18781;DHT22;9519;51.890;8.970;2022-10-12T16:24:00;15.90;90.60
18781;DHT22;9519;51.890;8.970;2022-10-12T16:29:03;15.70;91.10
18781;DHT22;9519;51.890;8.970;2022-10-12T16:34:05;15.50;90.90
18781;DHT22;9519;51.890;8.970;2022-10-12T16:39:08;15.30;91.10
18781;DHT22;9519;51.890;8.970;2022-10-12T16:44:11;15.10;91.20
18781;DHT22;9519;51.890;8.970;2022-10-12T16:49:13;14.90;91.40
18781;DHT22;9519;51.890;8.970;2022-10-12T16:54:16;14.70;91.50
18781;DHT22;9519;51.890;8.970;2022-10-12T16:59:19;14.50;91.60
18781;DHT22;9519;51.890;8.970;2022-10-12T17:04:21;14.30;91.80
18781;DHT22;9519;51.890;8.970;2022-10-12T17:09:24;14.10;91.90
18781;DHT22;9519;51.890;8.970;2022-10-12T17:14:28;13.90;92.00
18781;DHT22;9519;51.890;8.970;2022-10-12T17:19:32;13.70;92.20
18781;DHT22;9519;51.890;8.970;2022-10-12T17:24:38;13.60;92.30
18781;DHT22;9519;51.890;8.970;2022-10-12T17:29:44;13.40;92.50
18781;DHT22;9519;51.890;8.970;2022-10-12T17:34:46;13.20;92.50
18781;DHT22;9519;51.890;8.970;2022-10-12T17:39:48;13.10;92.70
18781;DHT22;9519;51.890;8.970;2022-10-12T17:44:52;12.90;92.80
18781;DHT22;9519;51.890;8.970;2022-10-12T17:49:54;12.70;93.00
18781;DHT22;9519;51.890;8.970;2022-10-12T17:54:56;12.60;93.10
18781;DHT22;9519;51.890;8.970;2022-10-12T18:06:17;12.40;93.60
18781;DHT22;9519;51.890;8.970;2022-10-12T18:11:23;12.30;93.60
18781;DHT22;9519;51.890;8.970;2022-10-12T18:16:27;12.20;93.70
18781;DHT22;9519;51.890;8.970;2022-10-12T18:21:33;12.10;93.80
18781;DHT22;9519;51.890;8.970;2022-10-12T18:26:36;12.10;94.00
18781;DHT22;9519;51.890;8.970;2022-10-12T18:31:39;12.00;94.10
18781;DHT22;9519;51.890;8.970;2022-10-12T18:36:42;11.90;94.20
18781;DHT22;9519;51.890;8.970;2022-10-12T18:41:45;11.90;94.40
18781;DHT22;9519;51.890;8.970;2022-10-12T18:46:51;11.80;94.50
18781;DHT22;9519;51.890;8.970;2022-10-12T18:51:54;11.80;94.60
18781;DHT22;9519;51.890;8.970;2022-10-12T18:56:56;11.80;94.90
18781;DHT22;9519;51.890;8.970;2022-10-12T19:01:58;11.70;94.90
18781;DHT22;9519;51.890;8.970;2022-10-12T19:07:02;11.70;95.00
18781;DHT22;9519;51.890;8.970;2022-10-12T19:12:04;11.70;95.10
18781;DHT22;9519;51.890;8.970;2022-10-12T19:17:06;11.60;95.20
18781;DHT22;9519;51.890;8.970;2022-10-12T19:22:10;11.60;95.30
18781;DHT22;9519;51.890;8.970;2022-10-12T19:27:12;11.50;95.50
18781;DHT22;9519;51.890;8.970;2022-10-12T19:32:14;11.50;95.60
18781;DHT22;9519;51.890;8.970;2022-10-12T19:37:18;11.50;95.70
18781;DHT22;9519;51.890;8.970;2022-10-12T19:42:20;11.50;95.80
18781;DHT22;9519;51.890;8.970;2022-10-12T19:47:22;11.50;96.00
18781;DHT22;9519;51.890;8.970;2022-10-12T19:52:26;11.50;96.10
18781;DHT22;9519;51.890;8.970;2022-10-12T19:57:28;11.50;96.20
18781;DHT22;9519;51.890;8.970;2022-10-12T20:02:30;11.40;96.20
18781;DHT22;9519;51.890;8.970;2022-10-12T20:07:35;11.40;96.40
18781;DHT22;9519;51.890;8.970;2022-10-12T20:12:38;11.40;96.40
18781;DHT22;9519;51.890;8.970;2022-10-12T20:17:40;11.40;96.50
18781;DHT22;9519;51.890;8.970;2022-10-12T20:22:43;11.30;96.50
18781;DHT22;9519;51.890;8.970;2022-10-12T20:27:45;11.30;96.60
18781;DHT22;9519;51.890;8.970;2022-10-12T20:32:48;11.20;96.70
18781;DHT22;9519;51.890;8.970;2022-10-12T20:37:51;11.20;96.70
18781;DHT22;9519;51.890;8.970;2022-10-12T20:42:54;11.10;96.80
18781;DHT22;9519;51.890;8.970;2022-10-12T20:47:56;11.10;96.80
18781;DHT22;9519;51.890;8.970;2022-10-12T20:53:00;11.00;96.80
18781;DHT22;9519;51.890;8.970;2022-10-12T20:58:02;10.90;97.20
18781;DHT22;9519;51.890;8.970;2022-10-12T21:03:04;10.80;96.90
18781;DHT22;9519;51.890;8.970;2022-10-12T21:08:08;10.70;96.90
18781;DHT22;9519;51.890;8.970;2022-10-12T21:13:10;10.60;96.90
18781;DHT22;9519;51.890;8.970;2022-10-12T21:18:12;10.50;96.90
18781;DHT22;9519;51.890;8.970;2022-10-12T21:23:15;10.40;97.00
18781;DHT22;9519;51.890;8.970;2022-10-12T21:28:18;10.30;97.10
18781;DHT22;9519;51.890;8.970;2022-10-12T21:33:21;10.20;97.20
18781;DHT22;9519;51.890;8.970;2022-10-12T21:38:24;10.10;97.30
18781;DHT22;9519;51.890;8.970;2022-10-12T21:43:27;10.10;97.50
18781;DHT22;9519;51.890;8.970;2022-10-12T21:48:30;10.10;97.70
18781;DHT22;9519;51.890;8.970;2022-10-12T21:53:35;10.10;97.90
18781;DHT22;9519;51.890;8.970;2022-10-12T21:58:38;10.10;98.10
18781;DHT22;9519;51.890;8.970;2022-10-12T22:03:41;10.20;98.30
18781;DHT22;9519;51.890;8.970;2022-10-12T22:08:49;10.10;98.40
18781;DHT22;9519;51.890;8.970;2022-10-12T22:13:53;10.20;98.50
18781;DHT22;9519;51.890;8.970;2022-10-12T22:18:59;10.20;98.50
18781;DHT22;9519;51.890;8.970;2022-10-12T22:24:05;10.20;98.60
18781;DHT22;9519;51.890;8.970;2022-10-12T22:29:07;10.20;98.70
18781;DHT22;9519;51.890;8.970;2022-10-12T22:34:10;10.10;98.70
18781;DHT22;9519;51.890;8.970;2022-10-12T22:39:13;10.00;98.70
18781;DHT22;9519;51.890;8.970;2022-10-12T22:44:15;9.90;98.70
18781;DHT22;9519;51.890;8.970;2022-10-12T22:49:18;9.90;98.70
18781;DHT22;9519;51.890;8.970;2022-10-12T22:54:21;9.80;98.80
18781;DHT22;9519;51.890;8.970;2022-10-12T22:59:23;9.80;99.00
18781;DHT22;9519;51.890;8.970;2022-10-12T23:04:25;9.80;99.00
18781;DHT22;9519;51.890;8.970;2022-10-12T23:09:29;9.70;99.50
18781;DHT22;9519;51.890;8.970;2022-10-12T23:14:31;9.70;99.30
18781;DHT22;9519;51.890;8.970;2022-10-12T23:19:33;9.70;99.30
18781;DHT22;9519;51.890;8.970;2022-10-12T23:24:37;9.70;99.40
18781;DHT22;9519;51.890;8.970;2022-10-12T23:29:39;9.60;99.50
18781;DHT22;9519;51.890;8.970;2022-10-12T23:34:41;9.60;99.50
18781;DHT22;9519;51.890;8.970;2022-10-12T23:39:46;9.60;99.60
18781;DHT22;9519;51.890;8.970;2022-10-12T23:44:48;9.50;99.70
18781;DHT22;9519;51.890;8.970;2022-10-12T23:49:50;9.50;99.60
18781;DHT22;9519;51.890;8.970;2022-10-12T23:54:54;9.40;99.70
18781;DHT22;9519;51.890;8.970;2022-10-12T23:59:56;9.40;99.70
